createdAt,value
2024-05-09T00:03:29.626Z,8.14
2024-05-09T00:08:47.485Z,8.01
2024-05-09T00:14:12.701Z,7.92
2024-05-09T00:19:37.989Z,7.83
2024-05-09T00:25:03.253Z,7.73
2024-05-09T00:30:34.596Z,7.64
2024-05-09T00:36:01.974Z,7.52
2024-05-09T00:41:27.442Z,7.43
2024-05-09T00:46:53.011Z,7.35
2024-05-09T00:52:18.843Z,7.23
2024-05-09T00:57:45.606Z,7.11
2024-05-09T01:03:12.832Z,7.01
2024-05-09T01:08:39.688Z,6.94
2024-05-09T01:14:03.494Z,6.86
2024-05-09T01:19:36.942Z,6.78
2024-05-09T01:24:55.688Z,6.69
2024-05-09T01:30:24.570Z,6.62
2024-05-09T01:35:56.562Z,6.53
2024-05-09T01:41:21.767Z,6.47
2024-05-09T01:46:47.040Z,6.40
2024-05-09T01:52:12.226Z,6.33
2024-05-09T01:57:37.414Z,6.23
2024-05-09T02:03:05.066Z,6.16
2024-05-09T02:08:29.584Z,6.09
2024-05-09T02:13:54.856Z,6.01
2024-05-09T02:19:20.325Z,5.95
2024-05-09T02:24:45.851Z,5.89
2024-05-09T02:30:18.760Z,5.81
2024-05-09T02:35:51.301Z,5.75
2024-05-09T02:41:16.775Z,5.70
2024-05-09T02:46:42.040Z,5.62
2024-05-09T02:51:59.565Z,5.54
2024-05-09T02:57:17.521Z,5.46
2024-05-09T03:02:43.015Z,5.38
2024-05-09T03:08:08.539Z,5.32
2024-05-09T03:13:34.630Z,5.27
2024-05-09T03:19:00.057Z,5.18
2024-05-09T03:24:25.887Z,5.07
2024-05-09T03:29:43.636Z,4.98
2024-05-09T03:35:08.835Z,4.94
2024-05-09T03:40:34.478Z,4.93
2024-05-09T03:45:59.599Z,4.89
2024-05-09T03:51:25.340Z,4.87
2024-05-09T03:56:50.530Z,4.88
2024-05-09T04:02:16.005Z,4.89
2024-05-09T04:07:41.329Z,4.84
2024-05-09T04:13:06.503Z,4.81
2024-05-09T04:18:31.813Z,4.83
2024-05-09T04:23:57.049Z,4.89
2024-05-09T04:29:22.258Z,4.96
2024-05-09T04:34:47.513Z,5.06
2024-05-09T04:40:24.040Z,5.30
2024-05-09T04:45:56.264Z,6.12
2024-05-09T04:51:22.996Z,6.90
2024-05-09T04:56:48.206Z,7.47
2024-05-09T05:02:13.474Z,7.78
2024-05-09T05:07:38.737Z,8.41
2024-05-09T05:13:02.298Z,8.99
2024-05-09T05:18:10.137Z,9.37
2024-05-09T05:23:36.809Z,9.81
2024-05-09T05:28:51.992Z,9.97
2024-05-09T05:33:57.008Z,10.33
2024-05-09T05:39:02.170Z,10.92
2024-05-09T05:44:10.475Z,11.45
2024-05-09T05:49:17.862Z,11.73
2024-05-09T05:54:32.994Z,11.98
2024-05-09T05:59:40.382Z,12.24
2024-05-09T06:04:45.798Z,12.46
2024-05-09T06:09:50.879Z,12.59
2024-05-09T06:14:58.556Z,12.75
2024-05-09T06:20:13.247Z,12.81
2024-05-09T06:25:22.479Z,13.00
2024-05-09T06:30:38.603Z,13.16
2024-05-09T06:35:56.977Z,13.42
2024-05-09T06:41:15.812Z,13.69
2024-05-09T06:46:39.854Z,13.95
2024-05-09T06:51:49.652Z,14.33
2024-05-09T06:57:14.871Z,14.72
2024-05-09T07:02:23.226Z,15.11
2024-05-09T07:07:42.432Z,15.20
2024-05-09T07:13:07.792Z,15.18
2024-05-09T07:18:19.925Z,15.34
2024-05-09T07:23:29.256Z,15.48
2024-05-09T07:28:46.952Z,15.67
2024-05-09T07:34:12.389Z,15.75
2024-05-09T07:39:30.528Z,15.89
2024-05-09T07:44:49.361Z,16.13
2024-05-09T07:55:25.866Z,16.30
2024-05-09T08:00:32.170Z,16.54
2024-05-09T08:05:51.215Z,16.76
2024-05-09T08:10:58.667Z,17.19
2024-05-09T08:16:04.151Z,17.65
2024-05-09T08:21:12.487Z,17.80
2024-05-09T08:26:37.699Z,17.99
2024-05-09T08:32:03.169Z,18.19
2024-05-09T08:37:15.787Z,18.44
2024-05-09T08:42:43.075Z,18.76
2024-05-09T08:48:01.073Z,19.05
2024-05-09T08:53:11.860Z,19.25
2024-05-09T08:58:19.055Z,19.47
2024-05-09T09:03:37.735Z,19.57
2024-05-09T09:08:59.823Z,19.51
2024-05-09T09:14:15.922Z,19.41
2024-05-09T09:19:22.768Z,19.21
2024-05-09T09:24:48.156Z,19.54
2024-05-09T09:30:03.624Z,19.91
2024-05-09T09:35:09.902Z,20.16
2024-05-09T09:46:59.697Z,20.38
2024-05-09T09:52:26.683Z,20.39
2024-05-09T09:57:35.802Z,20.47
2024-05-09T10:03:01.822Z,20.56
2024-05-09T10:08:29.684Z,20.70
2024-05-09T10:13:55.516Z,20.76
2024-05-09T10:19:03.866Z,20.86
2024-05-09T10:24:12.577Z,20.74
2024-05-09T10:29:28.929Z,20.72
2024-05-09T10:34:38.323Z,20.65
2024-05-09T10:39:53.851Z,20.88
2024-05-09T10:45:19.905Z,21.02
2024-05-09T10:50:36.142Z,21.16
2024-05-09T10:56:01.426Z,21.31
2024-05-09T11:01:27.572Z,21.62
2024-05-09T11:06:35.792Z,21.64
2024-05-09T11:12:01.368Z,21.73
2024-05-09T11:17:28.186Z,21.70
2024-05-09T11:22:54.050Z,21.65
2024-05-09T11:28:21.666Z,21.53
2024-05-09T11:33:48.920Z,21.48
2024-05-09T11:39:14.597Z,21.57
2024-05-09T11:44:40.059Z,21.63
2024-05-09T11:49:48.302Z,21.55
2024-05-09T11:55:13.767Z,21.63
2024-05-09T12:00:38.144Z,21.84
2024-05-09T12:06:03.671Z,22.09
2024-05-09T12:11:29.430Z,22.07
2024-05-09T12:16:54.986Z,22.14
2024-05-09T12:22:10.458Z,22.27
2024-05-09T12:27:25.706Z,22.33
2024-05-09T12:32:51.258Z,22.51
2024-05-09T12:38:17.351Z,22.55
2024-05-09T12:43:31.588Z,22.41
2024-05-09T12:48:37.178Z,22.40
2024-05-09T12:53:45.568Z,22.45
2024-05-09T12:59:12.290Z,22.54
2024-05-09T13:04:37.798Z,22.57
2024-05-09T13:10:04.441Z,22.62
2024-05-09T13:15:19.196Z,22.71
2024-05-09T13:20:44.968Z,22.55
2024-05-09T13:25:52.983Z,22.60
2024-05-09T13:31:08.224Z,22.59
2024-05-09T13:36:33.707Z,22.62
2024-05-09T13:41:59.028Z,22.59
2024-05-09T13:47:24.039Z,22.47
2024-05-09T13:52:42.076Z,22.37
2024-05-09T13:58:07.924Z,22.28
2024-05-09T14:03:18.413Z,22.21
2024-05-09T14:08:35.134Z,21.92
2024-05-09T14:13:51.300Z,21.74
2024-05-09T14:19:16.851Z,21.85
2024-05-09T14:24:25.041Z,21.94
2024-05-09T14:29:41.173Z,22.03
2024-05-09T14:35:06.607Z,21.93
2024-05-09T14:40:29.737Z,21.77
2024-05-09T14:46:01.126Z,21.68
2024-05-09T14:51:09.904Z,21.61
2024-05-09T14:56:35.453Z,21.64
2024-05-09T15:01:40.720Z,21.48
2024-05-09T15:06:56.535Z,21.29
2024-05-09T15:12:22.057Z,21.27
2024-05-09T15:17:31.847Z,21.27
2024-05-09T15:22:57.370Z,21.25
2024-05-09T15:28:10.690Z,21.29
2024-05-09T15:33:18.635Z,21.17
2024-05-09T15:38:35.119Z,21.02
2024-05-09T15:44:00.444Z,20.99
2024-05-09T15:49:26.076Z,20.89
2024-05-09T15:54:51.628Z,20.83
2024-05-09T16:00:24.978Z,20.79
2024-05-09T16:05:59.116Z,20.68
2024-05-09T16:11:14.747Z,20.52
2024-05-09T16:16:31.343Z,20.36
2024-05-09T16:21:47.732Z,20.27
2024-05-09T16:27:13.055Z,20.21
2024-05-09T16:32:38.372Z,20.14
2024-05-09T16:37:54.786Z,19.95
2024-05-09T16:43:20.219Z,19.80
2024-05-09T16:48:45.851Z,19.65
2024-05-09T16:54:01.304Z,19.59
2024-05-09T16:59:26.697Z,19.54
2024-05-09T17:04:52.062Z,19.44
2024-05-09T17:10:26.451Z,19.29
2024-05-09T17:15:57.644Z,19.20
2024-05-09T17:21:22.973Z,19.09
2024-05-09T17:26:37.271Z,18.99
2024-05-09T17:32:02.550Z,18.87
2024-05-09T17:37:27.965Z,18.81
2024-05-09T17:42:36.112Z,18.73
2024-05-09T17:47:41.735Z,18.66
2024-05-09T17:52:58.030Z,18.56
2024-05-09T17:58:06.538Z,18.46
2024-05-09T18:03:15.092Z,18.35
2024-05-09T18:08:41.472Z,18.23
2024-05-09T18:13:50.400Z,18.06
2024-05-09T18:18:56.549Z,17.92
2024-05-09T18:24:21.721Z,17.82
2024-05-09T18:29:34.172Z,17.70
2024-05-09T18:34:59.623Z,17.52
2024-05-09T18:40:32.935Z,17.34
2024-05-09T18:46:01.985Z,17.16
2024-05-09T18:51:17.271Z,16.93
2024-05-09T18:56:42.668Z,16.74
2024-05-09T19:02:08.836Z,16.53
2024-05-09T19:07:27.556Z,16.33
2024-05-09T19:12:52.913Z,16.12
2024-05-09T19:18:21.786Z,15.89
2024-05-09T19:23:52.126Z,15.68
2024-05-09T19:29:17.825Z,15.46
2024-05-09T19:34:33.828Z,15.26
2024-05-09T19:39:59.263Z,15.08
2024-05-09T19:45:25.498Z,14.85
2024-05-09T19:50:53.034Z,14.69
2024-05-09T19:56:20.238Z,14.55
2024-05-09T20:01:36.068Z,14.48
2024-05-09T20:07:02.244Z,14.42
2024-05-09T20:12:28.897Z,14.26
2024-05-09T20:17:54.806Z,14.12
2024-05-09T20:23:20.988Z,13.94
2024-05-09T20:28:37.855Z,13.84
2024-05-09T20:34:03.122Z,13.70
2024-05-09T20:39:28.772Z,13.53
2024-05-09T20:44:54.334Z,13.33
2024-05-09T20:50:23.044Z,13.22
2024-05-09T20:55:54.401Z,13.11
2024-05-09T21:01:19.417Z,13.01
2024-05-09T21:06:27.750Z,12.88
2024-05-09T21:11:43.102Z,12.76
2024-05-09T21:16:51.032Z,12.61
2024-05-09T21:22:16.572Z,12.48
2024-05-09T21:27:35.641Z,12.36
2024-05-09T21:33:01.084Z,12.29
2024-05-09T21:38:17.938Z,12.14
2024-05-09T21:43:34.130Z,12.04
2024-05-09T21:48:59.700Z,11.97
2024-05-09T21:54:07.934Z,11.90
2024-05-09T21:59:15.951Z,11.80
2024-05-09T22:04:28.567Z,11.71
2024-05-09T22:09:44.880Z,11.64
2024-05-09T22:14:50.127Z,11.57
2024-05-09T22:20:22.198Z,11.51
2024-05-09T22:25:54.206Z,11.45
2024-05-09T22:31:19.520Z,11.35
2024-05-09T22:36:27.013Z,11.28
2024-05-09T22:41:52.491Z,11.22
2024-05-09T22:47:17.840Z,11.18
2024-05-09T22:52:43.304Z,11.13
2024-05-09T22:57:58.811Z,11.09
2024-05-09T23:03:24.843Z,11.00
2024-05-09T23:08:52.010Z,10.94
2024-05-09T23:14:15.776Z,10.89
2024-05-09T23:19:41.215Z,10.86
2024-05-09T23:25:06.687Z,10.80
2024-05-09T23:30:38.215Z,10.73
2024-05-09T23:36:05.858Z,10.68
2024-05-09T23:41:31.133Z,10.62
2024-05-09T23:46:56.805Z,10.59
2024-05-09T23:52:22.459Z,10.56
2024-05-09T23:57:47.758Z,10.49
